sensor_id;sensor_type;location;lat;lon;timestamp;P1;durP1;ratioP1;P2;durP2;ratioP2
43413;SDS011;29013;49.676;8.606;2023-09-30T00:04:07;2.02;;;0.99;;
43413;SDS011;29013;49.676;8.606;2023-09-30T00:09:58;2.37;;;1.06;;
43413;SDS011;29013;49.676;8.606;2023-09-30T00:15:22;1.61;;;0.88;;
43413;SDS011;29013;49.676;8.606;2023-09-30T00:20:47;1.66;;;0.89;;
43413;SDS011;29013;49.676;8.606;2023-09-30T00:26:13;2.59;;;1.06;;
43413;SDS011;29013;49.676;8.606;2023-09-30T00:31:39;2.29;;;1.15;;
43413;SDS011;29013;49.676;8.606;2023-09-30T00:37:04;2.62;;;1.02;;
43413;SDS011;29013;49.676;8.606;2023-09-30T00:42:29;3.75;;;1.07;;
43413;SDS011;29013;49.676;8.606;2023-09-30T00:47:54;1.27;;;0.95;;
43413;SDS011;29013;49.676;8.606;2023-09-30T00:53:19;2.44;;;0.96;;
43413;SDS011;29013;49.676;8.606;2023-09-30T00:58:45;3.65;;;1.06;;
43413;SDS011;29013;49.676;8.606;2023-09-30T01:04:06;1.69;;;1.1;;
43413;SDS011;29013;49.676;8.606;2023-09-30T01:09:30;2.15;;;1.16;;
43413;SDS011;29013;49.676;8.606;2023-09-30T01:15:13;2.28;;;1.14;;
43413;SDS011;29013;49.676;8.606;2023-09-30T01:20:38;3.56;;;1.18;;
43413;SDS011;29013;49.676;8.606;2023-09-30T01:26:04;2.83;;;1.18;;
43413;SDS011;29013;49.676;8.606;2023-09-30T01:31:24;1.4;;;0.95;;
43413;SDS011;29013;49.676;8.606;2023-09-30T01:36:50;4.2;;;1.15;;
43413;SDS011;29013;49.676;8.606;2023-09-30T01:42:15;1.84;;;1.07;;
43413;SDS011;29013;49.676;8.606;2023-09-30T01:47:41;1.47;;;0.87;;
43413;SDS011;29013;49.676;8.606;2023-09-30T01:53:06;1.73;;;0.88;;
43413;SDS011;29013;49.676;8.606;2023-09-30T01:58:31;1.65;;;1.04;;
43413;SDS011;29013;49.676;8.606;2023-09-30T02:03:57;3.96;;;1.29;;
43413;SDS011;29013;49.676;8.606;2023-09-30T02:09:23;3.05;;;1.12;;
43413;SDS011;29013;49.676;8.606;2023-09-30T02:14:49;2.7;;;1.08;;
43413;SDS011;29013;49.676;8.606;2023-09-30T02:20:15;1.51;;;0.95;;
43413;SDS011;29013;49.676;8.606;2023-09-30T02:25:39;3.07;;;1.41;;
43413;SDS011;29013;49.676;8.606;2023-09-30T02:31:04;1.74;;;1.28;;
43413;SDS011;29013;49.676;8.606;2023-09-30T02:36:29;2.43;;;1.16;;
43413;SDS011;29013;49.676;8.606;2023-09-30T02:41:54;2.73;;;1.09;;
43413;SDS011;29013;49.676;8.606;2023-09-30T02:47:20;3.11;;;1.46;;
43413;SDS011;29013;49.676;8.606;2023-09-30T02:52:46;1.9;;;1.15;;
43413;SDS011;29013;49.676;8.606;2023-09-30T02:58:32;2.4;;;1.15;;
43413;SDS011;29013;49.676;8.606;2023-09-30T03:03:54;3.39;;;1.47;;
43413;SDS011;29013;49.676;8.606;2023-09-30T03:09:20;2.16;;;1.31;;
43413;SDS011;29013;49.676;8.606;2023-09-30T03:14:44;3.01;;;0.98;;
43413;SDS011;29013;49.676;8.606;2023-09-30T03:20:09;2.95;;;1.15;;
43413;SDS011;29013;49.676;8.606;2023-09-30T03:25:34;2.48;;;1.15;;
43413;SDS011;29013;49.676;8.606;2023-09-30T03:30:59;2.05;;;1.25;;
43413;SDS011;29013;49.676;8.606;2023-09-30T03:36:24;2.8;;;1.61;;
43413;SDS011;29013;49.676;8.606;2023-09-30T03:41:50;2.6;;;1.48;;
43413;SDS011;29013;49.676;8.606;2023-09-30T03:47:16;1.93;;;1.42;;
43413;SDS011;29013;49.676;8.606;2023-09-30T03:52:36;3.37;;;1.31;;
43413;SDS011;29013;49.676;8.606;2023-09-30T03:58:03;2.96;;;1.53;;
43413;SDS011;29013;49.676;8.606;2023-09-30T04:03:27;4.48;;;1.75;;
43413;SDS011;29013;49.676;8.606;2023-09-30T04:08:51;4.52;;;1.8;;
43413;SDS011;29013;49.676;8.606;2023-09-30T04:14:17;3.73;;;1.7;;
43413;SDS011;29013;49.676;8.606;2023-09-30T04:19:43;1.99;;;1.54;;
43413;SDS011;29013;49.676;8.606;2023-09-30T04:25:03;3.9;;;1.63;;
43413;SDS011;29013;49.676;8.606;2023-09-30T04:30:30;3.39;;;1.63;;
43413;SDS011;29013;49.676;8.606;2023-09-30T04:35:56;4.16;;;1.72;;
43413;SDS011;29013;49.676;8.606;2023-09-30T04:41:15;3.75;;;1.58;;
43413;SDS011;29013;49.676;8.606;2023-09-30T04:46:41;2.31;;;1.39;;
43413;SDS011;29013;49.676;8.606;2023-09-30T04:52:07;2.29;;;1.36;;
43413;SDS011;29013;49.676;8.606;2023-09-30T04:57:54;3.34;;;1.63;;
43413;SDS011;29013;49.676;8.606;2023-09-30T05:03:41;2.53;;;1.48;;
43413;SDS011;29013;49.676;8.606;2023-09-30T05:09:05;1.61;;;0.97;;
43413;SDS011;29013;49.676;8.606;2023-09-30T05:14:25;3.38;;;1.26;;
43413;SDS011;29013;49.676;8.606;2023-09-30T05:19:49;4.97;;;1.58;;
43413;SDS011;29013;49.676;8.606;2023-09-30T05:25:15;3.53;;;1.27;;
43413;SDS011;29013;49.676;8.606;2023-09-30T05:30:40;3.11;;;1.34;;
43413;SDS011;29013;49.676;8.606;2023-09-30T05:36:06;2.43;;;1.18;;
43413;SDS011;29013;49.676;8.606;2023-09-30T05:41:34;2.24;;;1.14;;
43413;SDS011;29013;49.676;8.606;2023-09-30T05:47:16;3.03;;;1.5;;
43413;SDS011;29013;49.676;8.606;2023-09-30T05:52:55;2.57;;;1.25;;
43413;SDS011;29013;49.676;8.606;2023-09-30T05:58:20;2.66;;;1.24;;
43413;SDS011;29013;49.676;8.606;2023-09-30T06:03:46;3.96;;;1.29;;
43413;SDS011;29013;49.676;8.606;2023-09-30T06:09:10;2.48;;;1.32;;
43413;SDS011;29013;49.676;8.606;2023-09-30T06:14:35;3.89;;;1.65;;
43413;SDS011;29013;49.676;8.606;2023-09-30T06:20:01;3.7;;;1.52;;
43413;SDS011;29013;49.676;8.606;2023-09-30T06:25:23;2.69;;;1.36;;
43413;SDS011;29013;49.676;8.606;2023-09-30T06:30:48;2.26;;;1.36;;
43413;SDS011;29013;49.676;8.606;2023-09-30T06:36:13;3.98;;;1.65;;
43413;SDS011;29013;49.676;8.606;2023-09-30T06:41:38;2.53;;;1.25;;
43413;SDS011;29013;49.676;8.606;2023-09-30T06:47:04;3.26;;;1.24;;
43413;SDS011;29013;49.676;8.606;2023-09-30T06:52:30;2.39;;;1.37;;
43413;SDS011;29013;49.676;8.606;2023-09-30T06:57:55;6.13;;;1.6;;
43413;SDS011;29013;49.676;8.606;2023-09-30T07:03:20;2.87;;;1.35;;
43413;SDS011;29013;49.676;8.606;2023-09-30T07:08:46;2.88;;;1.46;;
43413;SDS011;29013;49.676;8.606;2023-09-30T07:14:12;1.82;;;0.7;;
43413;SDS011;29013;49.676;8.606;2023-09-30T07:19:52;5.61;;;1.29;;
43413;SDS011;29013;49.676;8.606;2023-09-30T07:25:14;3.81;;;1.04;;
43413;SDS011;29013;49.676;8.606;2023-09-30T07:30:38;2.18;;;1.02;;
43413;SDS011;29013;49.676;8.606;2023-09-30T07:36:04;2.69;;;0.88;;
43413;SDS011;29013;49.676;8.606;2023-09-30T07:41:29;3.55;;;1.14;;
43413;SDS011;29013;49.676;8.606;2023-09-30T07:46:56;1.11;;;0.74;;
43413;SDS011;29013;49.676;8.606;2023-09-30T07:52:20;2.35;;;0.88;;
43413;SDS011;29013;49.676;8.606;2023-09-30T07:57:44;2.4;;;1.04;;
43413;SDS011;29013;49.676;8.606;2023-09-30T08:03:09;5.33;;;1.28;;
43413;SDS011;29013;49.676;8.606;2023-09-30T08:08:35;4.15;;;1.33;;
43413;SDS011;29013;49.676;8.606;2023-09-30T08:14:00;3.04;;;1.14;;
43413;SDS011;29013;49.676;8.606;2023-09-30T08:19:25;4.02;;;1.0;;
43413;SDS011;29013;49.676;8.606;2023-09-30T08:24:51;4.81;;;1.55;;
43413;SDS011;29013;49.676;8.606;2023-09-30T08:30:14;4.48;;;1.28;;
43413;SDS011;29013;49.676;8.606;2023-09-30T08:35:39;4.63;;;1.27;;
43413;SDS011;29013;49.676;8.606;2023-09-30T08:41:06;3.25;;;1.17;;
43413;SDS011;29013;49.676;8.606;2023-09-30T08:46:32;1.97;;;0.92;;
43413;SDS011;29013;49.676;8.606;2023-09-30T08:51:51;3.51;;;1.25;;
43413;SDS011;29013;49.676;8.606;2023-09-30T08:57:35;2.76;;;1.26;;
43413;SDS011;29013;49.676;8.606;2023-09-30T09:03:05;6.05;;;1.04;;
43413;SDS011;29013;49.676;8.606;2023-09-30T09:08:23;4.76;;;1.12;;
43413;SDS011;29013;49.676;8.606;2023-09-30T09:13:49;1.85;;;0.86;;
43413;SDS011;29013;49.676;8.606;2023-09-30T09:19:16;5.12;;;1.19;;
43413;SDS011;29013;49.676;8.606;2023-09-30T09:24:41;4.38;;;1.18;;
43413;SDS011;29013;49.676;8.606;2023-09-30T09:30:16;2.01;;;0.78;;
43413;SDS011;29013;49.676;8.606;2023-09-30T09:35:38;1.61;;;0.92;;
43413;SDS011;29013;49.676;8.606;2023-09-30T09:40:58;1.36;;;0.85;;
43413;SDS011;29013;49.676;8.606;2023-09-30T09:46:21;1.56;;;1.03;;
43413;SDS011;29013;49.676;8.606;2023-09-30T09:51:45;2.72;;;1.23;;
43413;SDS011;29013;49.676;8.606;2023-09-30T09:57:07;3.37;;;1.16;;
43413;SDS011;29013;49.676;8.606;2023-09-30T10:02:32;1.93;;;1.24;;
43413;SDS011;29013;49.676;8.606;2023-09-30T10:08:00;2.35;;;1.02;;
43413;SDS011;29013;49.676;8.606;2023-09-30T10:19:17;2.77;;;0.98;;
43413;SDS011;29013;49.676;8.606;2023-09-30T10:24:37;3.14;;;1.07;;
43413;SDS011;29013;49.676;8.606;2023-09-30T10:30:17;2.32;;;1.16;;
43413;SDS011;29013;49.676;8.606;2023-09-30T10:35:44;3.61;;;1.05;;
43413;SDS011;29013;49.676;8.606;2023-09-30T10:41:04;5.17;;;1.55;;
43413;SDS011;29013;49.676;8.606;2023-09-30T10:46:32;3.43;;;1.02;;
43413;SDS011;29013;49.676;8.606;2023-09-30T10:51:58;3.59;;;1.1;;
43413;SDS011;29013;49.676;8.606;2023-09-30T10:57:27;2.03;;;1.15;;
43413;SDS011;29013;49.676;8.606;2023-09-30T11:02:50;5.69;;;1.3;;
43413;SDS011;29013;49.676;8.606;2023-09-30T11:08:09;3.47;;;1.21;;
43413;SDS011;29013;49.676;8.606;2023-09-30T11:13:35;2.09;;;1.15;;
43413;SDS011;29013;49.676;8.606;2023-09-30T11:19:00;3.41;;;1.43;;
43413;SDS011;29013;49.676;8.606;2023-09-30T11:24:26;2.31;;;1.24;;
43413;SDS011;29013;49.676;8.606;2023-09-30T11:29:51;4.33;;;1.53;;
43413;SDS011;29013;49.676;8.606;2023-09-30T11:35:23;2.1;;;1.09;;
43413;SDS011;29013;49.676;8.606;2023-09-30T11:40:58;3.91;;;1.59;;
43413;SDS011;29013;49.676;8.606;2023-09-30T11:46:50;2.78;;;1.3;;
43413;SDS011;29013;49.676;8.606;2023-09-30T11:52:09;3.86;;;1.11;;
43413;SDS011;29013;49.676;8.606;2023-09-30T11:57:54;4.66;;;1.43;;
43413;SDS011;29013;49.676;8.606;2023-09-30T12:03:16;1.7;;;1.07;;
43413;SDS011;29013;49.676;8.606;2023-09-30T12:08:42;2.61;;;1.03;;
43413;SDS011;29013;49.676;8.606;2023-09-30T12:14:07;3.44;;;1.43;;
43413;SDS011;29013;49.676;8.606;2023-09-30T12:20:02;3.93;;;1.62;;
43413;SDS011;29013;49.676;8.606;2023-09-30T12:25:22;2.33;;;1.06;;
43413;SDS011;29013;49.676;8.606;2023-09-30T12:31:34;3.25;;;1.46;;
43413;SDS011;29013;49.676;8.606;2023-09-30T12:36:57;5.07;;;1.78;;
43413;SDS011;29013;49.676;8.606;2023-09-30T12:42:22;3.29;;;1.68;;
43413;SDS011;29013;49.676;8.606;2023-09-30T12:47:45;4.35;;;1.87;;
43413;SDS011;29013;49.676;8.606;2023-09-30T12:53:12;4.6;;;1.52;;
43413;SDS011;29013;49.676;8.606;2023-09-30T12:58:38;3.09;;;1.5;;
43413;SDS011;29013;49.676;8.606;2023-09-30T13:04:04;3.29;;;1.32;;
43413;SDS011;29013;49.676;8.606;2023-09-30T13:09:24;1.99;;;1.14;;
43413;SDS011;29013;49.676;8.606;2023-09-30T13:15:16;3.27;;;1.6;;
43413;SDS011;29013;49.676;8.606;2023-09-30T13:20:34;2.4;;;1.15;;
43413;SDS011;29013;49.676;8.606;2023-09-30T13:26:00;5.11;;;1.94;;
43413;SDS011;29013;49.676;8.606;2023-09-30T13:31:26;4.36;;;1.7;;
43413;SDS011;29013;49.676;8.606;2023-09-30T13:36:53;4.28;;;1.91;;
43413;SDS011;29013;49.676;8.606;2023-09-30T13:42:19;4.14;;;1.84;;
43413;SDS011;29013;49.676;8.606;2023-09-30T13:47:45;3.89;;;1.83;;
43413;SDS011;29013;49.676;8.606;2023-09-30T13:53:10;3.44;;;1.58;;
43413;SDS011;29013;49.676;8.606;2023-09-30T13:58:35;2.64;;;1.21;;
43413;SDS011;29013;49.676;8.606;2023-09-30T14:04:01;3.65;;;1.63;;
43413;SDS011;29013;49.676;8.606;2023-09-30T14:09:24;3.74;;;1.48;;
43413;SDS011;29013;49.676;8.606;2023-09-30T14:14:50;3.48;;;1.41;;
43413;SDS011;29013;49.676;8.606;2023-09-30T14:20:16;5.36;;;1.67;;
43413;SDS011;29013;49.676;8.606;2023-09-30T14:25:36;4.47;;;1.89;;
43413;SDS011;29013;49.676;8.606;2023-09-30T14:31:03;3.5;;;1.55;;
43413;SDS011;29013;49.676;8.606;2023-09-30T14:36:31;3.6;;;1.42;;
43413;SDS011;29013;49.676;8.606;2023-09-30T14:41:55;4.65;;;1.55;;
43413;SDS011;29013;49.676;8.606;2023-09-30T14:47:20;3.09;;;1.58;;
43413;SDS011;29013;49.676;8.606;2023-09-30T14:52:46;5.7;;;1.83;;
43413;SDS011;29013;49.676;8.606;2023-09-30T14:58:12;3.02;;;1.39;;
43413;SDS011;29013;49.676;8.606;2023-09-30T15:03:37;3.78;;;1.78;;
43413;SDS011;29013;49.676;8.606;2023-09-30T15:09:01;3.8;;;1.49;;
43413;SDS011;29013;49.676;8.606;2023-09-30T15:14:26;5.11;;;1.91;;
43413;SDS011;29013;49.676;8.606;2023-09-30T15:19:45;3.3;;;1.73;;
43413;SDS011;29013;49.676;8.606;2023-09-30T15:25:12;4.8;;;1.27;;
43413;SDS011;29013;49.676;8.606;2023-09-30T15:30:37;7.34;;;1.62;;
43413;SDS011;29013;49.676;8.606;2023-09-30T15:36:10;4.3;;;1.44;;
43413;SDS011;29013;49.676;8.606;2023-09-30T15:41:35;3.76;;;1.5;;
43413;SDS011;29013;49.676;8.606;2023-09-30T15:47:01;5.01;;;1.36;;
43413;SDS011;29013;49.676;8.606;2023-09-30T15:52:43;5.91;;;1.62;;
43413;SDS011;29013;49.676;8.606;2023-09-30T15:58:07;3.84;;;1.43;;
43413;SDS011;29013;49.676;8.606;2023-09-30T16:03:33;4.47;;;1.61;;
43413;SDS011;29013;49.676;8.606;2023-09-30T16:08:55;3.28;;;1.46;;
43413;SDS011;29013;49.676;8.606;2023-09-30T16:14:19;2.64;;;1.36;;
43413;SDS011;29013;49.676;8.606;2023-09-30T16:19:39;3.71;;;1.31;;
43413;SDS011;29013;49.676;8.606;2023-09-30T16:24:58;3.17;;;1.33;;
43413;SDS011;29013;49.676;8.606;2023-09-30T16:30:21;2.8;;;1.64;;
43413;SDS011;29013;49.676;8.606;2023-09-30T16:35:47;4.98;;;1.66;;
43413;SDS011;29013;49.676;8.606;2023-09-30T16:41:12;7.77;;;1.72;;
43413;SDS011;29013;49.676;8.606;2023-09-30T16:46:37;3.84;;;1.77;;
43413;SDS011;29013;49.676;8.606;2023-09-30T16:51:56;3.36;;;1.53;;
43413;SDS011;29013;49.676;8.606;2023-09-30T16:57:38;3.2;;;1.71;;
43413;SDS011;29013;49.676;8.606;2023-09-30T17:03:03;3.75;;;1.66;;
43413;SDS011;29013;49.676;8.606;2023-09-30T17:08:28;3.51;;;1.55;;
43413;SDS011;29013;49.676;8.606;2023-09-30T17:13:54;4.07;;;1.71;;
43413;SDS011;29013;49.676;8.606;2023-09-30T17:19:19;4.78;;;1.75;;
43413;SDS011;29013;49.676;8.606;2023-09-30T17:24:45;3.7;;;1.59;;
43413;SDS011;29013;49.676;8.606;2023-09-30T17:30:11;3.89;;;1.52;;
43413;SDS011;29013;49.676;8.606;2023-09-30T17:35:31;2.8;;;1.35;;
43413;SDS011;29013;49.676;8.606;2023-09-30T17:41:00;3.14;;;1.66;;
43413;SDS011;29013;49.676;8.606;2023-09-30T17:46:20;5.74;;;2.22;;
43413;SDS011;29013;49.676;8.606;2023-09-30T17:51:45;4.86;;;1.78;;
43413;SDS011;29013;49.676;8.606;2023-09-30T17:57:11;3.09;;;1.84;;
43413;SDS011;29013;49.676;8.606;2023-09-30T18:02:36;3.55;;;1.82;;
43413;SDS011;29013;49.676;8.606;2023-09-30T18:08:03;2.95;;;1.63;;
43413;SDS011;29013;49.676;8.606;2023-09-30T18:13:22;2.33;;;1.51;;
43413;SDS011;29013;49.676;8.606;2023-09-30T18:18:48;2.36;;;1.4;;
43413;SDS011;29013;49.676;8.606;2023-09-30T18:24:15;2.48;;;1.4;;
43413;SDS011;29013;49.676;8.606;2023-09-30T18:29:41;3.75;;;1.44;;
43413;SDS011;29013;49.676;8.606;2023-09-30T18:35:08;3.03;;;1.78;;
43413;SDS011;29013;49.676;8.606;2023-09-30T18:40:33;3.34;;;1.51;;
43413;SDS011;29013;49.676;8.606;2023-09-30T18:45:58;2.29;;;1.46;;
43413;SDS011;29013;49.676;8.606;2023-09-30T18:51:21;3.18;;;1.55;;
43413;SDS011;29013;49.676;8.606;2023-09-30T18:56:47;2.54;;;1.44;;
43413;SDS011;29013;49.676;8.606;2023-09-30T19:02:11;3.53;;;1.49;;
43413;SDS011;29013;49.676;8.606;2023-09-30T19:07:36;3.68;;;1.43;;
43413;SDS011;29013;49.676;8.606;2023-09-30T19:12:55;2.92;;;1.51;;
43413;SDS011;29013;49.676;8.606;2023-09-30T19:18:20;3.29;;;1.69;;
43413;SDS011;29013;49.676;8.606;2023-09-30T19:23:46;2.37;;;1.35;;
43413;SDS011;29013;49.676;8.606;2023-09-30T19:29:11;4.21;;;1.9;;
43413;SDS011;29013;49.676;8.606;2023-09-30T19:34:30;3.0;;;1.57;;
43413;SDS011;29013;49.676;8.606;2023-09-30T19:39:55;3.17;;;1.69;;
43413;SDS011;29013;49.676;8.606;2023-09-30T19:45:19;2.5;;;1.52;;
43413;SDS011;29013;49.676;8.606;2023-09-30T19:50:42;2.83;;;1.47;;
43413;SDS011;29013;49.676;8.606;2023-09-30T19:56:07;2.13;;;1.28;;
43413;SDS011;29013;49.676;8.606;2023-09-30T20:01:31;3.08;;;1.73;;
43413;SDS011;29013;49.676;8.606;2023-09-30T20:06:57;4.12;;;1.81;;
43413;SDS011;29013;49.676;8.606;2023-09-30T20:12:23;4.46;;;1.66;;
43413;SDS011;29013;49.676;8.606;2023-09-30T20:17:48;4.32;;;1.52;;
43413;SDS011;29013;49.676;8.606;2023-09-30T20:23:35;4.87;;;1.78;;
43413;SDS011;29013;49.676;8.606;2023-09-30T20:28:59;3.25;;;1.65;;
43413;SDS011;29013;49.676;8.606;2023-09-30T20:34:40;3.37;;;1.5;;
43413;SDS011;29013;49.676;8.606;2023-09-30T20:40:07;3.71;;;1.63;;
43413;SDS011;29013;49.676;8.606;2023-09-30T20:45:33;2.91;;;1.51;;
43413;SDS011;29013;49.676;8.606;2023-09-30T20:50:57;2.49;;;1.41;;
43413;SDS011;29013;49.676;8.606;2023-09-30T20:56:19;1.99;;;1.25;;
43413;SDS011;29013;49.676;8.606;2023-09-30T21:01:41;2.69;;;1.42;;
43413;SDS011;29013;49.676;8.606;2023-09-30T21:07:08;2.46;;;1.32;;
43413;SDS011;29013;49.676;8.606;2023-09-30T21:12:32;1.8;;;1.18;;
43413;SDS011;29013;49.676;8.606;2023-09-30T21:18:13;3.24;;;1.48;;
43413;SDS011;29013;49.676;8.606;2023-09-30T21:23:56;3.96;;;1.73;;
43413;SDS011;29013;49.676;8.606;2023-09-30T21:29:20;4.41;;;1.29;;
43413;SDS011;29013;49.676;8.606;2023-09-30T21:34:43;2.6;;;1.43;;
43413;SDS011;29013;49.676;8.606;2023-09-30T21:40:11;3.77;;;1.95;;
43413;SDS011;29013;49.676;8.606;2023-09-30T21:45:31;4.7;;;1.97;;
43413;SDS011;29013;49.676;8.606;2023-09-30T21:50:57;5.01;;;2.47;;
43413;SDS011;29013;49.676;8.606;2023-09-30T21:56:22;4.76;;;2.12;;
43413;SDS011;29013;49.676;8.606;2023-09-30T22:01:47;3.09;;;2.15;;
43413;SDS011;29013;49.676;8.606;2023-09-30T22:07:11;4.79;;;1.66;;
43413;SDS011;29013;49.676;8.606;2023-09-30T22:12:37;3.78;;;1.7;;
43413;SDS011;29013;49.676;8.606;2023-09-30T22:17:57;2.82;;;1.23;;
43413;SDS011;29013;49.676;8.606;2023-09-30T22:23:21;2.6;;;1.28;;
43413;SDS011;29013;49.676;8.606;2023-09-30T22:28:47;2.82;;;1.65;;
43413;SDS011;29013;49.676;8.606;2023-09-30T22:34:12;3.25;;;1.35;;
43413;SDS011;29013;49.676;8.606;2023-09-30T22:39:53;3.7;;;1.54;;
43413;SDS011;29013;49.676;8.606;2023-09-30T22:45:17;2.92;;;1.46;;
43413;SDS011;29013;49.676;8.606;2023-09-30T22:50:42;2.56;;;1.12;;
43413;SDS011;29013;49.676;8.606;2023-09-30T22:56:07;2.23;;;1.24;;
43413;SDS011;29013;49.676;8.606;2023-09-30T23:01:33;3.74;;;1.68;;
43413;SDS011;29013;49.676;8.606;2023-09-30T23:06:59;5.0;;;1.71;;
43413;SDS011;29013;49.676;8.606;2023-09-30T23:12:24;3.31;;;2.01;;
43413;SDS011;29013;49.676;8.606;2023-09-30T23:17:49;2.44;;;1.4;;
43413;SDS011;29013;49.676;8.606;2023-09-30T23:23:14;2.4;;;1.33;;
43413;SDS011;29013;49.676;8.606;2023-09-30T23:28:39;2.9;;;1.85;;
43413;SDS011;29013;49.676;8.606;2023-09-30T23:34:20;2.37;;;1.41;;
43413;SDS011;29013;49.676;8.606;2023-09-30T23:39:44;3.12;;;1.61;;
43413;SDS011;29013;49.676;8.606;2023-09-30T23:45:10;6.24;;;1.71;;
43413;SDS011;29013;49.676;8.606;2023-09-30T23:50:35;4.28;;;1.62;;
43413;SDS011;29013;49.676;8.606;2023-09-30T23:55:57;3.09;;;1.75;;
